Time;durP1;ratioP1;P1;durP2;ratioP2;P2;SDS_P1;SDS_P2;PMS_P1;PMS_P2;Temp;Humidity;BMP_temperature;BMP_pressure;BME280_temperature;BME280_humidity;BME280_pressure;Samples;Min_cycle;Max_cycle;Signal;HPM_P1;HPM_P2
2023/01/17 00:00:02;;;;;;;12.85;4.38;;;3.80;99.90;;;2.14;87.59;97801.53;4890199;28;20070;-82
2023/01/17 00:02:29;;;;;;;5.95;2.50;;;3.90;99.90;;;2.06;87.59;97793.34;4886492;28;20050;-81
2023/01/17 00:10:27;;;;;;;14.18;4.68;;;3.90;99.90;;;2.21;87.71;97795.03;4908452;28;20046;-80
2023/01/17 00:13:00;;;;;;;13.63;4.65;;;3.90;99.90;;;2.17;87.59;97793.53;4903963;28;20046;-82
2023/01/17 00:15:29;;;;;;;15.43;5.03;;;3.90;99.90;;;2.14;87.35;97785.97;4892960;29;20504;-81
2023/01/17 00:17:56;;;;;;;15.52;4.68;;;3.90;99.90;;;2.20;87.42;97792.53;4890467;28;20125;-82
2023/01/17 00:26:08;;;;;;;12.10;5.10;;;3.90;99.90;;;2.19;87.39;97775.28;4929551;28;20126;-81
2023/01/17 01:33:38;;;;;;;11.95;4.60;;;3.50;99.90;;;1.71;89.75;97689.88;4913598;28;20093;-80
2023/01/17 01:36:10;;;;;;;17.13;5.30;;;3.50;99.90;;;1.76;89.77;97689.59;4893087;28;20057;-82
2023/01/17 01:38:36;;;;;;;15.30;5.75;;;3.50;99.90;;;1.69;89.84;97683.94;4952378;28;20057;-81
2023/01/17 01:41:02;;;;;;;14.27;4.97;;;3.50;99.90;;;1.65;90.15;97687.66;4945995;28;20048;-81
2023/01/17 01:44:03;;;;;;;13.80;7.13;;;3.50;99.90;;;1.73;90.08;97684.59;4912421;28;20045;-81
2023/01/17 01:46:40;;;;;;;14.93;6.93;;;3.40;99.90;;;1.62;90.20;97672.25;4839271;29;20136;-81
2023/01/17 01:49:23;;;;;;;19.60;7.55;;;3.40;99.90;;;1.53;90.54;97672.78;4926754;28;20193;-82
2023/01/17 01:52:00;;;;;;;15.02;6.18;;;3.40;99.90;;;1.47;91.21;97670.56;4921495;28;20034;-81
2023/01/17 01:54:34;;;;;;;18.50;6.22;;;3.30;99.90;;;1.47;91.13;97657.59;4916085;28;20034;-82
2023/01/17 01:57:03;;;;;;;16.15;6.75;;;3.20;99.90;;;1.44;91.46;97663.78;4924833;28;20030;-82
2023/01/17 01:59:39;;;;;;;16.88;6.78;;;3.30;99.90;;;1.48;91.50;97660.09;4945776;28;20547;-82
2023/01/17 02:02:09;;;;;;;13.40;5.40;;;3.20;99.90;;;1.41;91.77;97659.63;4909885;28;20594;-82
2023/01/17 02:04:45;;;;;;;14.30;6.78;;;3.20;99.90;;;1.42;92.29;97650.91;4908764;28;20029;-82
2023/01/17 02:07:32;;;;;;;16.77;6.32;;;3.20;99.90;;;1.36;92.34;97668.59;4935421;28;20100;-83
2023/01/17 02:10:06;;;;;;;13.93;6.57;;;3.20;99.90;;;1.40;92.14;97652.78;4913798;28;20047;-82
2023/01/17 02:12:33;;;;;;;16.45;7.00;;;;;;;1.35;92.11;97652.22;4918150;28;20030;-82
2023/01/17 02:14:59;;;;;;;17.92;6.65;;;3.10;99.90;;;1.33;92.58;97654.06;4900731;28;20082;-82
2023/01/17 02:18:38;;;;;;;14.93;7.47;;;3.10;99.90;;;1.25;92.82;97652.81;4885629;28;20097;-81
2023/01/17 02:21:17;;;;;;;17.35;7.22;;;3.00;99.90;;;1.19;93.30;97648.84;4876635;28;20050;-82
2023/01/17 02:24:20;;;;;;;18.58;7.43;;;3.00;99.90;;;1.19;93.43;97638.47;4949776;28;20496;-82
2023/01/17 02:26:56;;;;;;;12.63;5.60;;;3.00;99.90;;;1.14;93.56;97643.06;4936418;28;20103;-82
2023/01/17 02:30:24;;;;;;;18.80;7.45;;;2.90;99.90;;;1.13;94.35;97637.06;4928124;28;20046;-82
2023/01/17 02:33:16;;;;;;;12.77;5.25;;;2.90;99.90;;;1.05;94.82;97643.63;4894057;28;20038;-82
2023/01/17 02:36:25;;;;;;;11.05;5.70;;;2.90;99.90;;;1.08;94.95;97638.25;4937851;28;20042;-82
2023/01/17 02:39:29;;;;;;;18.10;7.72;;;2.90;99.90;;;1.14;94.77;97630.13;4930437;28;20048;-81
2023/01/17 02:42:09;;;;;;;15.57;7.28;;;3.00;99.90;;;1.16;94.87;97633.47;4952740;28;20094;-82
2023/01/17 02:44:43;;;;;;;17.27;8.32;;;3.00;99.90;;;1.19;94.87;97622.94;4933914;28;20114;-82
2023/01/17 02:47:38;;;;;;;18.23;7.68;;;3.00;99.90;;;1.19;95.16;97623.75;4897385;28;20039;-80
2023/01/17 02:50:18;;;;;;;16.30;6.45;;;3.00;99.90;;;1.21;94.78;97623.69;4868515;28;20039;-82
2023/01/17 02:53:01;;;;;;;14.82;7.07;;;3.00;99.90;;;1.25;94.96;97621.72;4883574;28;20049;-82
2023/01/17 02:55:55;;;;;;;16.80;7.38;;;3.00;99.90;;;1.29;95.29;97618.84;4930254;28;20045;-81
2023/01/17 02:58:59;;;;;;;22.67;8.20;;;3.10;99.90;;;1.26;94.66;97623.41;4944840;28;20062;-83
2023/01/17 03:01:52;;;;;;;16.98;7.45;;;3.00;99.90;;;1.19;94.99;97618.56;4922606;28;20046;-81
2023/01/17 03:04:31;;;;;;;17.15;8.05;;;3.00;99.90;;;1.22;95.07;97613.19;4919107;28;20237;-81
2023/01/17 03:07:04;;;;;;;22.50;8.88;;;3.00;99.90;;;1.20;94.84;97606.44;4906494;28;20047;-82
2023/01/17 03:09:33;;;;;;;19.20;7.97;;;3.00;99.90;;;1.22;95.26;97607.19;4926939;28;20047;-82
2023/01/17 03:11:59;;;;;;;25.00;8.30;;;3.00;99.90;;;1.21;95.41;97606.38;4960350;28;20049;-81
2023/01/17 03:14:24;;;;;;;11.95;5.57;;;3.00;99.90;;;1.14;95.35;97599.03;4892310;28;20046;-82
2023/01/17 03:16:51;;;;;;;17.10;8.35;;;3.00;99.90;;;1.19;95.74;97597.84;4904838;28;20039;-82
2023/01/17 03:19:22;;;;;;;16.88;8.00;;;3.00;99.90;;;1.19;95.83;97597.03;4855692;28;20051;-82
2023/01/17 03:21:48;;;;;;;22.38;8.65;;;3.00;99.90;;;1.18;96.05;97605.69;4886155;28;20027;-80
2023/01/17 03:24:15;;;;;;;20.17;8.70;;;3.00;99.90;;;1.23;95.97;97603.66;4880791;28;20039;-82
2023/01/17 03:26:43;;;;;;;17.65;9.00;;;3.00;99.90;;;1.22;95.72;97597.66;4915499;28;20077;-82
2023/01/17 03:29:18;;;;;;;18.08;7.63;;;3.00;99.90;;;1.17;95.79;97597.09;4899817;28;20394;-82
2023/01/17 03:31:44;;;;;;;19.05;8.90;;;3.00;99.90;;;1.14;95.84;97594.66;4927938;28;20046;-81
2023/01/17 03:34:09;;;;;;;21.50;6.70;;;2.90;99.90;;;1.09;96.40;97590.69;4874091;29;20110;-81
2023/01/17 03:36:35;;;;;;;19.88;8.98;;;2.90;99.90;;;1.16;96.48;97602.34;4892619;28;20030;-82
2023/01/17 03:39:10;;;;;;;23.50;9.38;;;2.90;99.90;;;1.17;96.29;97597.09;4901913;28;20070;-82
2023/01/17 03:41:36;;;;;;;18.83;8.60;;;2.90;99.90;;;1.18;96.18;97587.56;4912285;28;21494;-81
2023/01/17 03:44:02;;;;;;;19.70;9.00;;;2.90;99.90;;;1.16;96.06;97587.63;4909568;28;20404;-82
2023/01/17 03:46:28;;;;;;;18.02;8.23;;;2.90;99.90;;;1.12;96.42;97587.91;4889604;28;20061;-82
2023/01/17 03:48:59;;;;;;;18.35;8.75;;;2.90;99.90;;;1.13;96.83;97587.00;4904620;28;20070;-82
2023/01/17 03:51:25;;;;;;;18.30;9.43;;;2.90;99.90;;;1.16;96.62;97587.63;4881322;28;20061;-81
2023/01/17 03:53:50;;;;;;;20.58;8.40;;;2.90;99.90;;;1.12;96.82;97593.09;4880021;28;20030;-82
2023/01/17 03:56:17;;;;;;;16.80;8.27;;;2.90;99.90;;;1.10;97.07;97577.66;4884118;28;20448;-82
2023/01/17 03:58:43;;;;;;;19.77;9.38;;;2.90;99.90;;;1.15;97.29;97585.97;4893457;28;20074;-82
2023/01/17 04:01:18;;;;;;;19.52;8.82;;;;;;;1.16;97.00;97586.81;4892010;28;20030;-81
2023/01/17 04:03:46;;;;;;;12.17;6.13;;;2.90;99.90;;;1.08;97.05;97586.41;4886889;28;20043;-81
2023/01/17 04:06:12;;;;;;;19.60;9.00;;;2.90;99.90;;;1.06;97.40;97583.09;4885202;28;20027;-81
2023/01/17 04:08:45;;;;;;;16.20;9.05;;;2.90;99.90;;;1.08;97.49;97584.69;4908765;28;20564;-81
2023/01/17 04:11:11;;;;;;;19.05;9.48;;;2.90;99.90;;;1.11;97.22;97588.84;4922224;28;20133;-81
2023/01/17 04:13:37;;;;;;;17.67;6.65;;;2.80;99.90;;;1.07;98.00;97579.59;4897454;28;20104;-81
2023/01/17 04:16:03;;;;;;;15.00;6.93;;;2.30;99.90;;;1.08;97.52;97570.88;4910310;28;20114;-81
2023/01/17 04:18:31;;;;;;;19.83;9.77;;;2.90;99.90;;;1.09;97.63;97573.38;4902140;28;20048;-80
2023/01/17 04:20:59;;;;;;;18.83;9.25;;;2.90;99.90;;;1.16;97.60;97571.25;4912711;28;20038;-81
2023/01/17 04:23:25;;;;;;;18.77;9.60;;;2.90;99.90;;;1.22;97.71;97570.91;4910134;28;20042;-79
2023/01/17 04:25:51;;;;;;;22.38;9.52;;;2.90;99.90;;;1.18;97.32;97564.22;4932712;28;20078;-81
2023/01/17 04:28:16;;;;;;;22.88;10.27;;;3.00;99.90;;;1.18;97.04;97562.47;4911957;28;20069;-80
2023/01/17 04:30:42;;;;;;;16.80;9.02;;;2.90;99.90;;;1.13;97.52;97563.69;4919645;28;20118;-81
2023/01/17 04:33:08;;;;;;;20.67;9.20;;;2.90;99.90;;;1.12;97.44;97560.22;4941963;28;20049;-80
2023/01/17 04:35:39;;;;;;;17.60;8.77;;;2.90;99.90;;;1.21;97.75;97561.47;4888289;28;20082;-81
2023/01/17 04:38:05;;;;;;;20.45;10.02;;;2.90;99.90;;;1.21;97.66;97559.72;4915390;28;20047;-81
2023/01/17 04:40:31;;;;;;;18.25;9.15;;;3.00;99.90;;;1.23;97.73;97562.19;4925211;28;20161;-80
2023/01/17 04:42:57;;;;;;;18.98;9.18;;;3.00;99.90;;;1.22;97.64;97563.13;4925639;28;20507;-79
2023/01/17 04:45:23;;;;;;;21.13;9.18;;;3.00;99.90;;;1.23;97.67;97554.41;4905301;28;20038;-81
2023/01/17 04:47:53;;;;;;;18.20;9.45;;;3.00;99.90;;;1.24;97.65;97556.09;4907835;28;20123;-80
2023/01/17 04:50:19;;;;;;;21.85;9.98;;;3.00;99.90;;;1.26;97.50;97556.84;4886680;28;20125;-80
2023/01/17 04:52:45;;;;;;;17.95;9.57;;;3.00;99.90;;;1.24;97.57;97561.28;4925210;28;20110;-81
2023/01/17 04:55:11;;;;;;;19.13;9.98;;;3.10;99.90;;;1.27;97.78;97560.25;4885824;28;20035;-81
2023/01/17 04:57:37;;;;;;;22.58;10.05;;;3.00;99.90;;;1.30;97.38;97553.16;4927398;28;20174;-80
2023/01/17 05:00:08;;;;;;;21.55;9.95;;;3.10;99.90;;;1.31;97.52;97548.78;4931088;28;20548;-81
2023/01/17 05:02:34;;;;;;;21.15;9.60;;;3.10;99.90;;;1.28;97.41;97547.22;4921514;28;20034;-81
2023/01/17 05:05:00;;;;;;;21.13;9.15;;;3.10;99.90;;;1.25;97.46;97549.16;4932580;28;20153;-80
2023/01/17 05:07:25;;;;;;;17.95;9.57;;;3.00;99.90;;;1.22;97.45;97543.22;4852645;28;20486;-81
2023/01/17 05:09:51;;;;;;;16.80;9.10;;;3.00;99.90;;;1.21;97.38;97549.34;4913003;28;20113;-81
2023/01/17 05:12:17;;;;;;;19.58;9.13;;;3.00;99.90;;;1.14;97.86;97548.00;4897607;28;20630;-80
2023/01/17 05:14:43;;;;;;;18.75;9.40;;;3.00;99.90;;;1.20;97.80;97549.44;4902776;28;20150;-81
2023/01/17 05:17:14;;;;;;;19.23;9.73;;;3.00;99.90;;;1.21;98.00;97549.34;4911540;28;20033;-79
2023/01/17 05:19:39;;;;;;;17.23;9.25;;;2.90;99.90;;;1.18;98.34;97546.91;4922504;28;20061;-80
2023/01/17 05:22:13;;;;;;;19.98;9.20;;;3.00;99.90;;;1.18;98.47;97548.69;4927923;28;20137;-81
2023/01/17 05:24:47;;;;;;;19.63;9.60;;;3.00;99.90;;;1.20;98.56;97546.84;4912871;28;20046;-79
2023/01/17 05:27:14;;;;;;;20.42;9.15;;;3.00;99.90;;;1.26;98.48;97550.84;4931620;28;20039;-81
2023/01/17 05:29:40;;;;;;;16.77;8.80;;;3.00;99.90;;;1.24;98.90;97556.09;4914768;28;20097;-81
2023/01/17 05:32:11;;;;;;;20.80;9.30;;;3.00;99.90;;;1.27;98.91;97542.94;4923539;28;20046;-81
2023/01/17 05:34:37;;;;;;;17.67;9.48;;;3.00;99.90;;;1.28;98.93;97544.63;4895532;28;20123;-82
2023/01/17 05:37:02;;;;;;;15.73;8.35;;;3.00;99.90;;;1.28;98.76;97555.00;4935598;28;20118;-81
2023/01/17 05:39:29;;;;;;;18.45;7.88;;;3.10;99.90;;;1.32;98.76;97556.47;4912056;28;20039;-82
2023/01/17 05:41:55;;;;;;;17.77;7.65;;;3.10;99.90;;;1.38;98.86;97557.84;4911627;28;20780;-82
2023/01/17 05:44:28;;;;;;;19.70;7.40;;;3.10;99.90;;;1.42;98.69;97557.56;4916730;28;20073;-82
2023/01/17 05:46:55;;;;;;;12.65;6.50;;;3.10;99.90;;;1.46;98.72;97557.41;4891327;28;20047;-82
2023/01/17 05:49:21;;;;;;;15.95;6.70;;;3.20;99.90;;;1.52;98.66;97563.06;4946930;28;20134;-82
2023/01/17 05:51:47;;;;;;;11.88;6.50;;;3.30;99.90;;;1.57;98.44;97560.19;4922117;28;20126;-81
2023/01/17 05:54:18;;;;;;;14.38;5.75;;;3.30;99.90;;;1.54;98.18;97565.56;4912606;28;20131;-81
2023/01/17 05:56:43;;;;;;;14.02;6.55;;;3.30;99.90;;;1.58;98.26;97556.69;4909102;28;20035;-82
2023/01/17 05:59:09;;;;;;;13.82;5.95;;;3.30;99.90;;;1.66;97.94;97564.81;4894262;28;20098;-81
2023/01/17 06:01:35;;;;;;;13.35;6.32;;;3.40;99.90;;;1.67;97.81;97553.50;4921955;28;20106;-82
2023/01/17 06:04:01;;;;;;;12.15;5.38;;;3.40;99.90;;;1.69;97.44;97551.66;4919303;28;20138;-82
2023/01/17 06:06:27;;;;;;;12.38;5.63;;;3.40;99.90;;;1.76;97.42;97552.13;4895570;28;24313;-81
2023/01/17 06:09:02;;;;;;;11.23;6.00;;;3.50;99.90;;;1.78;97.19;97552.84;4901389;28;20042;-81
2023/01/17 06:11:28;;;;;;;12.15;5.53;;;3.40;99.90;;;1.73;97.06;97550.56;4902380;28;20820;-81
2023/01/17 06:13:54;;;;;;;12.52;5.22;;;3.50;99.90;;;1.76;96.99;97558.13;4912891;23;20093;-82
2023/01/17 06:16:19;;;;;;;12.57;5.90;;;3.50;99.90;;;1.83;96.96;97556.81;4896307;28;20030;-81
2023/01/17 06:18:50;;;;;;;11.20;5.63;;;3.60;99.90;;;1.83;97.00;97551.63;4904146;28;20046;-82
2023/01/17 06:21:16;;;;;;;12.38;6.00;;;3.60;99.90;;;1.89;97.17;97565.16;4886948;28;20410;-82
2023/01/17 06:23:42;;;;;;;15.18;5.47;;;3.60;99.90;;;1.86;97.06;97555.81;4925430;28;20115;-82
2023/01/17 06:26:09;;;;;;;12.07;5.88;;;3.60;99.90;;;1.91;96.80;97560.72;4931160;28;20057;-81
2023/01/17 06:28:35;;;;;;;8.35;4.90;;;3.60;99.90;;;1.97;96.65;97563.78;4915072;28;20046;-81
2023/01/17 06:31:08;;;;;;;13.68;4.78;;;3.70;99.90;;;1.98;96.11;97560.22;4920155;28;20066;-81
2023/01/17 06:33:33;;;;;;;8.38;4.53;;;3.70;99.90;;;2.02;96.45;97568.66;4931515;23;20084;-81
2023/01/17 06:35:59;;;;;;;11.90;4.63;;;3.70;99.90;;;2.03;96.53;97562.53;4914550;28;20031;-82
2023/01/17 06:38:27;;;;;;;9.60;4.90;;;3.80;99.90;;;2.03;96.25;97557.34;4884932;28;20043;-81
2023/01/17 06:40:59;;;;;;;8.93;4.43;;;3.80;99.90;;;2.05;96.35;97561.53;4913675;28;20198;-81
2023/01/17 06:43:26;;;;;;;8.88;4.53;;;3.80;99.90;;;2.08;96.20;97559.69;4910643;28;20055;-82
2023/01/17 06:45:54;;;;;;;8.75;4.35;;;3.80;99.90;;;2.14;95.99;97564.47;4908303;28;20031;-81
2023/01/17 06:48:19;;;;;;;13.63;4.70;;;3.90;99.90;;;2.19;96.24;97565.84;4904380;28;20089;-80
2023/01/17 06:50:51;;;;;;;7.30;4.20;;;3.90;99.90;;;2.23;95.92;97572.53;4941734;28;21321;-82
2023/01/17 06:53:17;;;;;;;9.50;3.95;;;3.90;99.90;;;2.31;95.89;97571.19;4909031;28;20034;-81
2023/01/17 06:55:42;;;;;;;8.80;4.15;;;4.00;99.90;;;2.34;95.37;97571.00;4896918;29;20115;-82
2023/01/17 06:58:09;;;;;;;8.00;4.15;;;4.00;99.90;;;2.40;95.80;97575.81;4890678;28;20039;-81
2023/01/17 07:00:35;;;;;;;7.55;3.88;;;4.00;99.90;;;2.42;95.61;97576.56;4925348;28;20209;-82
2023/01/17 07:03:15;;;;;;;7.68;3.97;;;4.00;99.90;;;2.43;95.68;97567.81;4896920;28;20097;-81
2023/01/17 07:05:45;;;;;;;8.50;3.80;;;4.00;99.90;;;2.41;95.82;97564.50;4906556;28;20041;-82
2023/01/17 07:08:11;;;;;;;10.15;4.03;;;4.10;99.90;;;2.43;96.10;97567.81;4925322;28;20424;-82
2023/01/17 07:10:37;;;;;;;6.00;3.30;;;4.10;99.90;;;2.45;95.98;97576.34;4962813;28;20031;-81
2023/01/17 07:13:03;;;;;;;7.80;3.80;;;4.10;99.90;;;2.49;96.15;97579.59;4933040;28;20121;-82
2023/01/17 07:15:29;;;;;;;6.15;3.63;;;4.10;99.90;;;2.53;95.91;97579.28;4912005;28;20043;-82
2023/01/17 07:17:54;;;;;;;8.40;3.65;;;4.20;99.90;;;2.56;96.06;97583.47;4912472;28;20107;-81
2023/01/17 07:20:29;;;;;;;7.30;3.60;;;4.20;99.90;;;2.60;96.37;97588.34;4911476;28;20101;-80
2023/01/17 07:22:55;;;;;;;7.10;3.60;;;4.20;99.90;;;2.61;96.41;97583.97;4894224;28;20037;-82
2023/01/17 07:25:21;;;;;;;8.05;3.22;;;4.20;99.90;;;2.62;96.44;97585.66;4962600;28;20030;-82
2023/01/17 07:27:47;;;;;;;6.05;3.40;;;4.20;99.90;;;2.67;96.35;97584.41;4901154;28;20147;-81
2023/01/17 07:30:21;;;;;;;5.72;3.35;;;4.30;99.90;;;2.72;96.19;97578.94;4913838;28;20039;-82
2023/01/17 07:32:52;;;;;;;6.90;3.60;;;4.30;99.90;;;2.75;96.42;97570.94;4946349;28;20041;-82
2023/01/17 07:35:26;;;;;;;6.03;3.63;;;4.30;99.90;;;2.78;96.35;97588.91;4927313;28;20065;-82
2023/01/17 07:37:52;;;;;;;4.80;3.30;;;4.40;99.90;;;2.80;96.44;97581.03;4927980;28;20045;-82
2023/01/17 07:40:20;;;;;;;8.60;3.70;;;4.40;99.90;;;2.85;96.37;97576.34;4913022;28;20042;-81
2023/01/17 07:42:51;;;;;;;7.50;3.38;;;4.40;99.90;;;2.86;96.31;97568.47;4905040;28;20068;-82
2023/01/17 07:45:18;;;;;;;6.97;3.83;;;4.40;99.90;;;2.85;96.35;97568.56;4917445;28;20053;-81
2023/01/17 07:47:44;;;;;;;7.25;3.30;;;4.40;99.90;;;2.88;96.55;97573.56;4908546;28;20122;-82
2023/01/17 07:50:12;;;;;;;6.53;3.40;;;4.50;99.90;;;2.94;96.39;97575.78;4906873;28;20114;-81
2023/01/17 07:52:46;;;;;;;5.70;3.53;;;4.50;99.90;;;2.93;96.52;97562.88;4905323;28;20035;-82
2023/01/17 07:55:12;;;;;;;5.45;3.15;;;4.50;99.90;;;2.99;96.59;97572.88;4898297;23;20051;-82
2023/01/17 07:57:38;;;;;;;5.22;3.13;;;4.60;99.90;;;3.02;96.73;97572.66;4875206;28;20149;-82
2023/01/17 08:00:12;;;;;;;5.07;3.03;;;4.60;99.90;;;3.04;96.71;97574.22;4920064;28;20054;-81
2023/01/17 08:02:38;;;;;;;5.25;3.17;;;4.60;99.90;;;3.05;97.12;97578.50;4921687;28;20039;-81
2023/01/17 08:05:04;;;;;;;4.93;3.10;;;4.60;99.90;;;3.11;97.42;97586.81;4907920;28;20707;-82
2023/01/17 08:07:30;;;;;;;4.95;3.00;;;4.70;99.90;;;3.17;97.17;97584.63;4886589;28;20046;-81
2023/01/17 08:09:56;;;;;;;4.20;2.75;;;4.70;99.90;;;3.22;97.07;97595.56;4907161;28;20072;-82
2023/01/17 08:12:25;;;;;;;3.50;2.42;;;4.70;99.90;;;3.25;97.05;97589.34;4927367;28;20121;-80
2023/01/17 08:14:51;;;;;;;6.90;2.85;;;4.80;99.90;;;3.27;97.80;97600.47;4935566;23;20045;-81
2023/01/17 08:17:19;;;;;;;3.53;2.70;;;4.80;99.90;;;3.27;98.35;97606.50;4913786;28;20491;-81
2023/01/17 08:19:45;;;;;;;4.25;2.40;;;4.90;99.90;;;3.28;98.51;97602.13;4931586;28;20085;-82
2023/01/17 08:22:11;;;;;;;3.72;2.70;;;4.90;99.90;;;3.32;99.41;97602.75;4927963;28;20022;-81
2023/01/17 08:24:43;;;;;;;4.15;2.80;;;4.90;99.90;;;3.31;99.99;97601.94;4882760;28;20053;-82
2023/01/17 08:27:09;;;;;;;8.07;2.75;;;5.00;99.90;;;3.37;100.00;97604.13;4913610;28;20027;-82
2023/01/17 08:29:35;;;;;;;3.65;2.95;;;5.00;99.90;;;3.42;100.00;97609.84;4894859;28;20097;-82
2023/01/17 08:32:02;;;;;;;4.90;2.85;;;5.00;99.90;;;3.42;100.00;97612.44;4912360;28;20036;-82
2023/01/17 08:34:28;;;;;;;3.55;2.65;;;5.00;99.90;;;3.44;100.00;97610.56;4904431;28;20191;-81
2023/01/17 08:36:58;;;;;;;3.20;2.60;;;5.10;99.90;;;3.47;100.00;97620.75;4904561;28;20026;-82
2023/01/17 08:39:27;;;;;;;2.42;2.08;;;5.00;99.90;;;3.48;100.00;97617.25;4893013;28;20045;-82
2023/01/17 08:41:53;;;;;;;2.00;1.80;;;5.10;99.90;;;3.52;100.00;97617.88;4857951;28;20150;-82
2023/01/17 08:44:19;;;;;;;3.55;1.75;;;5.20;99.90;;;3.61;98.66;97627.66;4889598;28;20546;-82
2023/01/17 08:46:45;;;;;;;3.15;2.08;;;5.20;99.90;;;3.59;98.10;97623.50;4919768;28;20034;-82
2023/01/17 08:49:15;;;;;;;2.03;1.80;;;5.20;99.90;;;3.66;97.63;97628.16;4908695;28;20545;-83
2023/01/17 08:51:41;;;;;;;2.83;2.33;;;5.20;99.90;;;3.76;97.77;97631.00;4899457;28;20102;-82
2023/01/17 08:54:10;;;;;;;3.45;2.60;;;5.30;99.90;;;3.85;97.44;97629.53;4918499;28;20823;-82
2023/01/17 08:56:36;;;;;;;3.33;2.67;;;5.40;99.90;;;4.00;96.96;97638.06;4922749;28;20101;-83
2023/01/17 08:59:10;;;;;;;3.15;2.42;;;5.40;99.90;;;3.99;96.14;97644.19;4917420;28;20508;-80
2023/01/17 09:01:40;;;;;;;2.40;2.10;;;5.50;99.90;;;4.00;95.25;97635.44;4938465;28;20037;-80
2023/01/17 09:04:11;;;;;;;2.85;2.17;;;5.50;99.90;;;4.03;95.00;97646.47;4931809;28;20133;-81
2023/01/17 09:06:39;;;;;;;2.50;2.00;;;5.50;99.90;;;3.96;94.50;97653.03;4919116;28;20047;-80
2023/01/17 09:09:07;;;;;;;2.17;1.98;;;5.50;99.90;;;3.95;94.48;97655.75;4944822;28;20046;-80
2023/01/17 09:11:40;;;;;;;1.80;1.70;;;5.50;99.90;;;4.02;93.99;97659.59;4936073;28;20174;-81
2023/01/17 09:14:09;;;;;;;2.00;1.60;;;5.60;99.90;;;4.03;94.03;97654.28;4922541;28;20042;-82
2023/01/17 09:16:50;;;;;;;2.33;1.90;;;5.60;99.90;;;4.17;93.25;97655.94;4859488;28;20043;-80
2023/01/17 09:19:16;;;;;;;1.92;1.63;;;5.70;99.90;;;4.27;92.41;97662.16;4936353;28;20136;-81
2023/01/17 09:21:45;;;;;;;2.78;2.47;;;5.80;99.90;;;4.31;92.58;97654.97;4911123;28;20132;-81
2023/01/17 09:24:14;;;;;;;1.65;1.50;;;5.80;99.90;;;4.25;92.61;97655.38;4883371;28;20084;-80
2023/01/17 09:26:40;;;;;;;2.33;1.63;;;6.70;99.90;;;4.26;92.63;97668.31;4917307;28;20027;-81
2023/01/17 09:29:16;;;;;;;2.80;1.65;;;;;;;4.24;93.00;97667.59;4907887;28;20038;-80
2023/01/17 09:31:45;;;;;;;;;;;5.80;99.90;;;4.13;93.18;97675.31;4938505;28;20143;-81
2023/01/17 09:34:20;;;;;;;2.40;1.60;;;5.70;99.90;;;4.09;93.45;97669.47;4914025;28;19949;-79
2023/01/17 09:36:46;;;;;;;2.13;1.90;;;5.70;99.90;;;4.03;93.53;97663.88;4928220;28;20528;-79
2023/01/17 09:39:14;;;;;;;1.70;1.50;;;5.70;99.90;;;4.06;93.86;97669.69;4954628;28;20042;-80
2023/01/17 09:42:17;;;;;;;2.83;2.15;;;5.60;99.90;;;4.07;94.33;97666.16;4929606;28;20046;-81
2023/01/17 09:44:50;;;;;;;2.60;1.63;;;5.60;99.90;;;4.05;94.73;97668.03;4943992;28;20031;-80
2023/01/17 09:47:42;;;;;;;6.75;1.90;;;5.60;99.90;;;4.08;94.13;97670.44;4912151;28;20027;-80
2023/01/17 09:50:32;;;;;;;1.80;1.65;;;5.60;99.90;;;4.05;94.37;97673.22;4917915;28;20040;-81
2023/01/17 09:53:24;;;;;;;2.20;2.00;;;5.60;99.90;;;4.00;94.85;97677.09;4911663;28;20062;-82
2023/01/17 09:55:57;;;;;;;2.60;2.13;;;5.60;99.90;;;3.92;95.38;97671.59;4932264;28;20035;-82
2023/01/17 09:59:08;;;;;;;3.53;1.95;;;5.60;99.90;;;3.89;95.76;97677.84;4927993;28;20046;-81
2023/01/17 10:02:04;;;;;;;2.95;1.92;;;5.50;99.90;;;3.84;97.01;97685.94;4945454;28;20040;-80
2023/01/17 10:04:51;;;;;;;2.25;1.80;;;5.40;99.90;;;3.77;97.70;97683.88;4932249;28;20059;-81
2023/01/17 10:08:10;;;;;;;1.98;1.77;;;5.40;99.90;;;3.68;98.65;97687.91;4941898;28;20047;-80
2023/01/17 10:10:41;;;;;;;2.47;2.22;;;5.30;99.90;;;3.59;99.64;97678.13;4923055;28;20467;-81
2023/01/17 10:13:33;;;;;;;4.45;2.20;;;5.30;99.90;;;3.62;100.00;97681.34;4902556;28;20112;-80
2023/01/17 10:16:26;;;;;;;2.22;1.85;;;5.30;99.90;;;3.63;100.00;97682.19;4905499;28;20052;-80
2023/01/17 10:19:47;;;;;;;1.83;1.70;;;5.30;99.90;;;3.57;100.00;97693.84;4923118;28;20064;-81
2023/01/17 10:23:06;;;;;;;2.38;1.95;;;5.30;99.90;;;3.64;100.00;97689.06;4935054;28;20466;-80
2023/01/17 10:25:48;;;;;;;2.55;1.33;;;;;;;3.57;100.00;97685.22;4948835;28;20031;-80
2023/01/17 10:28:34;;;;;;;2.42;1.83;;;5.20;99.90;;;3.55;100.00;97689.69;4925878;28;20043;-81
2023/01/17 10:31:24;;;;;;;9.10;4.95;;;5.20;99.90;;;3.55;100.00;97693.09;4922258;28;21279;-81
2023/01/17 10:34:03;;;;;;;2.65;0.77;;;5.20;99.90;;;3.55;100.00;97698.31;4915918;28;20478;-81
2023/01/17 10:36:45;;;;;;;2.78;1.75;;;5.20;99.90;;;3.67;100.00;97705.31;4954719;28;20050;-81
2023/01/17 10:39:38;;;;;;;9.00;5.88;;;5.30;99.90;;;3.69;100.00;97713.00;4926637;28;20097;-81
2023/01/17 10:42:23;;;;;;;5.85;3.90;;;5.40;99.90;;;3.86;100.00;97715.28;4933464;28;20030;-82
2023/01/17 10:45:09;;;;;;;2.85;1.67;;;5.40;99.90;;;3.84;99.88;97722.38;4959403;28;20093;-81
2023/01/17 10:47:41;;;;;;;4.57;2.40;;;5.40;99.90;;;3.80;99.18;97730.50;4927976;28;20039;-81
2023/01/17 10:50:12;;;;;;;0.50;0.50;;;5.40;99.90;;;3.73;98.56;97740.47;4926880;28;20035;-81
2023/01/17 10:53:10;;;;;;;0.65;0.60;;;5.30;99.90;;;3.67;97.76;97733.94;4873346;28;20047;-81
2023/01/17 10:55:53;;;;;;;1.45;1.15;;;5.30;99.90;;;3.66;97.73;97734.84;4903756;28;20030;-81
2023/01/17 10:58:22;;;;;;;4.20;1.60;;;5.30;99.90;;;3.68;97.77;97746.00;4937314;28;20046;-82
2023/01/17 11:01:20;;;;;;;2.55;1.33;;;5.30;99.90;;;3.60;97.45;97752.63;4937717;28;20035;-81
2023/01/17 11:03:56;;;;;;;0.75;0.70;;;5.30;99.90;;;3.61;97.47;97754.31;4942574;28;20051;-81
2023/01/17 11:06:26;;;;;;;1.00;0.60;;;5.20;99.90;;;3.63;97.08;97762.84;4927776;28;20118;-82
2023/01/17 11:09:02;;;;;;;0.63;0.40;;;5.20;99.90;;;3.68;96.59;97769.41;4932084;28;20035;-80
2023/01/17 11:11:32;;;;;;;0.30;0.30;;;5.20;99.90;;;3.69;96.33;97773.69;4891529;28;20066;-80
2023/01/17 11:14:27;;;;;;;0.65;0.30;;;5.30;99.90;;;3.75;96.31;97782.84;4922211;28;20043;-82
2023/01/17 11:17:06;;;;;;;1.85;0.20;;;5.30;99.90;;;3.81;95.98;97789.44;4942360;28;20035;-82
2023/01/17 11:19:39;;;;;;;1.02;0.50;;;5.30;99.90;;;3.82;95.00;97789.34;4888695;28;20609;-83
2023/01/17 11:22:23;;;;;;;1.65;0.30;;;5.30;99.90;;;3.82;93.93;97788.47;4925536;28;20101;-81
2023/01/17 11:25:02;;;;;;;2.15;0.47;;;5.30;99.90;;;3.84;92.44;97794.44;4921179;28;20040;-83
2023/01/17 11:28:13;;;;;;;0.35;0.20;;;5.40;99.90;;;3.89;91.97;97801.00;4875810;28;20199;-83
2023/01/17 11:30:54;;;;;;;1.13;0.20;;;5.40;99.90;;;3.94;90.69;97799.88;4905593;28;20091;-83
2023/01/17 11:33:52;;;;;;;2.08;0.40;;;5.40;99.90;;;3.97;90.11;97799.66;4933586;28;20039;-83
2023/01/17 11:36:33;;;;;;;2.45;0.30;;;5.50;99.90;;;4.00;89.32;97809.88;4911154;28;20043;-81
2023/01/17 11:39:15;;;;;;;7.28;0.70;;;5.50;99.90;;;4.03;88.87;97814.88;4922328;28;20051;-82
2023/01/17 11:41:53;;;;;;;6.15;0.68;;;5.50;99.90;;;4.03;88.88;97823.50;4952648;28;20093;-83
2023/01/17 11:44:34;;;;;;;2.40;0.32;;;5.60;99.90;;;4.06;89.10;97820.72;4952552;28;20039;-83
2023/01/17 11:47:12;;;;;;;4.38;0.98;;;5.50;99.90;;;3.95;88.66;97822.34;4930735;28;20046;-82
2023/01/17 11:49:48;;;;;;;4.07;0.57;;;5.50;99.90;;;3.97;88.94;97823.09;4965116;28;20411;-82
2023/01/17 11:52:32;;;;;;;6.78;0.50;;;5.50;99.90;;;3.98;89.02;97823.00;4946785;28;20024;-82
2023/01/17 11:55:14;;;;;;;3.90;0.50;;;5.50;99.90;;;3.98;88.89;97822.16;4921610;28;20049;-82
2023/01/17 11:57:44;;;;;;;4.10;0.63;;;5.50;99.90;;;4.00;88.62;97828.09;4952683;28;20030;-83
2023/01/17 12:00:31;;;;;;;4.55;0.60;;;5.50;99.90;;;4.06;88.28;97833.75;4916030;28;20035;-82
2023/01/17 12:03:26;;;;;;;5.50;0.50;;;5.50;99.90;;;4.06;88.82;97832.88;4929654;28;20039;-82
2023/01/17 12:06:19;;;;;;;5.38;0.45;;;5.50;99.90;;;4.05;88.59;97839.88;4942796;28;20035;-83
2023/01/17 12:09:28;;;;;;;1.95;0.35;;;5.60;99.90;;;4.08;88.35;97844.91;4948729;28;20045;-82
2023/01/17 12:15:44;;;;;;;3.90;0.60;;;5.60;99.90;;;4.22;88.42;97856.16;4957600;28;20470;-81
2023/01/17 12:18:39;;;;;;;5.15;0.60;;;5.70;99.90;;;4.17;87.95;97851.25;4938326;28;20038;-82